Time;durP1;ratioP1;P1;durP2;ratioP2;P2;SDS_P1;SDS_P2;PMS_P1;PMS_P2;Temp;Humidity;BMP_temperature;BMP_pressure;BME280_temperature;BME280_humidity;BME280_pressure;Samples;Min_cycle;Max_cycle;Signal;HPM_P1;HPM_P2
2024/01/13 00:01:50;;;;;;;32.80;17.03;;;4.50;57.60;;;;;;4995200;28;20249;-56
2024/01/13 00:04:16;;;;;;;38.70;18.67;;;4.50;57.60;;;;;;4996280;28;20208;-57
2024/01/13 00:06:41;;;;;;;38.83;20.37;;;4.60;57.60;;;;;;4996851;28;20214;-56
2024/01/13 00:09:07;;;;;;;37.77;18.73;;;4.60;57.40;;;;;;4998730;28;20198;-58
2024/01/13 00:11:33;;;;;;;41.30;19.57;;;4.60;57.30;;;;;;4994522;28;20746;-59
2024/01/13 00:13:59;;;;;;;37.50;18.13;;;4.60;57.30;;;;;;4991479;28;20457;-59
2024/01/13 00:16:25;;;;;;;38.23;18.93;;;4.50;57.30;;;;;;4995454;28;20461;-59
2024/01/13 00:18:50;;;;;;;32.00;16.60;;;4.50;57.30;;;;;;4995822;28;20187;-57
2024/01/13 00:21:16;;;;;;;39.50;17.33;;;4.50;57.40;;;;;;4986997;28;20605;-54
2024/01/13 00:23:42;;;;;;;31.30;17.07;;;4.50;57.10;;;;;;4993935;28;20189;-57
2024/01/13 00:26:07;;;;;;;32.97;17.10;;;4.40;57.10;;;;;;4991418;28;20210;-56
2024/01/13 00:28:33;;;;;;;35.17;19.53;;;4.30;57.30;;;;;;4990576;28;20215;-57
2024/01/13 00:30:59;;;;;;;36.40;18.50;;;4.20;57.40;;;;;;4987935;28;20187;-56
2024/01/13 00:33:24;;;;;;;33.30;15.83;;;4.20;57.60;;;;;;4992067;28;20199;-59
2024/01/13 00:35:50;;;;;;;35.70;19.90;;;4.30;57.80;;;;;;4992593;28;20578;-55
2024/01/13 00:38:16;;;;;;;34.30;17.83;;;4.40;57.80;;;;;;4987348;28;20224;-57
2024/01/13 00:40:42;;;;;;;37.87;17.57;;;4.30;57.80;;;;;;4993767;28;20533;-57
2024/01/13 00:43:08;;;;;;;32.30;17.87;;;4.40;57.60;;;;;;4993983;28;20363;-55
2024/01/13 00:45:34;;;;;;;34.80;16.57;;;4.50;57.50;;;;;;4988268;28;20465;-56
2024/01/13 00:48:01;;;;;;;29.20;16.60;;;4.50;57.30;;;;;;4985858;28;20447;-56
2024/01/13 00:50:26;;;;;;;45.53;19.53;;;4.60;57.30;;;;;;4989459;28;20245;-57
2024/01/13 00:52:52;;;;;;;42.83;20.37;;;4.50;57.00;;;;;;4991600;28;20430;-56
2024/01/13 00:55:18;;;;;;;39.27;19.60;;;4.50;57.00;;;;;;4988797;28;21256;-54
2024/01/13 00:57:43;;;;;;;34.60;17.50;;;4.40;57.20;;;;;;4991601;28;20179;-55
2024/01/13 01:00:10;;;;;;;38.97;18.40;;;4.20;57.40;;;;;;4989539;28;20256;-56
2024/01/13 01:02:36;;;;;;;37.83;18.20;;;4.10;57.40;;;;;;4992829;28;20222;-56
2024/01/13 01:05:02;;;;;;;31.17;16.37;;;4.20;57.80;;;;;;4992874;28;20484;-57
2024/01/13 01:07:27;;;;;;;31.30;16.63;;;4.10;57.80;;;;;;4989814;28;20243;-54
2024/01/13 01:09:53;;;;;;;33.00;16.37;;;4.10;58.10;;;;;;4985614;28;20217;-56
2024/01/13 01:12:18;;;;;;;29.93;14.37;;;4.10;57.90;;;;;;4997204;28;20210;-57
2024/01/13 01:14:44;;;;;;;35.00;16.67;;;4.30;57.60;;;;;;4993613;28;20273;-57
2024/01/13 01:17:10;;;;;;;38.70;17.10;;;4.30;57.40;;;;;;4994571;28;20725;-56
2024/01/13 01:19:35;;;;;;;33.93;17.53;;;4.40;57.50;;;;;;4988249;28;20321;-57
2024/01/13 01:22:01;;;;;;;31.70;15.30;;;4.40;57.20;;;;;;4986453;28;20214;-58
2024/01/13 01:24:26;;;;;;;35.03;16.83;;;4.50;57.20;;;;;;4987560;28;20178;-55
2024/01/13 01:26:52;;;;;;;36.00;15.90;;;4.50;57.20;;;;;;4981435;28;20294;-55
2024/01/13 01:29:17;;;;;;;35.13;16.43;;;4.50;57.90;;;;;;4989720;28;20183;-55
2024/01/13 01:31:45;;;;;;;35.20;16.60;;;4.50;57.20;;;;;;4986339;28;20248;-57
2024/01/13 01:34:10;;;;;;;29.80;16.13;;;4.50;57.10;;;;;;4989394;28;20186;-58
2024/01/13 01:36:36;;;;;;;38.80;18.40;;;4.50;57.20;;;;;;4986585;28;20474;-55
2024/01/13 01:39:01;;;;;;;36.87;15.50;;;4.50;57.10;;;;;;4986325;28;20209;-57
2024/01/13 01:41:27;;;;;;;36.00;17.80;;;4.50;57.10;;;;;;4988009;28;20219;-58
2024/01/13 01:43:52;;;;;;;37.53;18.70;;;4.50;57.30;;;;;;4989498;28;20223;-58
2024/01/13 01:46:20;;;;;;;33.40;17.80;;;4.50;57.40;;;;;;4995467;28;20248;-56
2024/01/13 01:48:46;;;;;;;34.07;17.40;;;4.60;57.50;;;;;;4988722;28;20261;-55
2024/01/13 01:51:17;;;;;;;35.00;15.80;;;4.60;57.40;;;;;;4992244;28;20837;-59
2024/01/13 01:53:44;;;;;;;32.50;16.80;;;4.60;57.20;;;;;;4988051;28;20438;-58
2024/01/13 01:56:19;;;;;;;33.33;16.50;;;4.60;57.00;;;;;;4992076;28;20543;-58
2024/01/13 01:58:46;;;;;;;36.47;16.67;;;4.60;57.00;;;;;;4984230;28;20437;-57
2024/01/13 02:01:13;;;;;;;36.90;17.60;;;4.50;57.10;;;;;;4989427;28;20539;-55
2024/01/13 02:03:39;;;;;;;37.83;17.33;;;4.40;57.30;;;;;;4992147;28;20460;-53
2024/01/13 02:06:06;;;;;;;30.10;15.27;;;4.20;57.50;;;;;;4991628;28;20519;-56
2024/01/13 02:08:32;;;;;;;29.17;14.30;;;4.10;57.70;;;;;;4991078;28;20489;-58
2024/01/13 02:10:58;;;;;;;36.60;15.50;;;4.20;57.60;;;;;;4984176;28;20446;-56
2024/01/13 02:13:23;;;;;;;29.33;14.47;;;4.20;57.30;;;;;;4989113;28;20441;-58
2024/01/13 02:15:49;;;;;;;34.97;17.00;;;4.30;57.30;;;;;;4986717;28;20469;-54
2024/01/13 02:18:14;;;;;;;31.00;16.00;;;4.30;57.30;;;;;;4989945;28;20183;-56
2024/01/13 02:20:40;;;;;;;29.50;15.30;;;4.40;57.30;;;;;;4987713;28;20214;-58
2024/01/13 02:23:06;;;;;;;32.67;15.90;;;4.40;57.30;;;;;;4991332;28;20189;-55
2024/01/13 02:25:31;;;;;;;32.13;15.43;;;4.40;57.10;;;;;;4993708;28;20213;-54
2024/01/13 02:27:57;;;;;;;34.40;16.10;;;4.40;57.20;;;;;;4990315;28;20187;-57
2024/01/13 02:30:22;;;;;;;31.20;16.53;;;4.40;57.20;;;;;;4983227;28;20542;-56
2024/01/13 02:32:48;;;;;;;33.80;15.57;;;4.20;57.50;;;;;;4987237;28;20557;-57
2024/01/13 02:35:13;;;;;;;29.80;15.57;;;4.00;57.50;;;;;;4982715;28;20198;-56
2024/01/13 02:37:40;;;;;;;30.23;15.17;;;3.90;57.80;;;;;;4991865;28;20206;-59
2024/01/13 02:40:09;;;;;;;29.77;15.67;;;3.90;57.80;;;;;;4991309;28;20229;-58
2024/01/13 02:42:35;;;;;;;33.10;16.70;;;3.80;57.90;;;;;;4980132;28;20470;-54
2024/01/13 02:45:00;;;;;;;32.00;16.37;;;4.00;57.70;;;;;;4986483;28;20516;-57
2024/01/13 02:47:40;;;;;;;33.50;17.80;;;4.10;57.40;;;;;;4987704;28;20462;-58
2024/01/13 02:50:06;;;;;;;35.70;16.53;;;4.10;57.30;;;;;;4985700;28;20554;-56
2024/01/13 02:52:32;;;;;;;32.57;16.50;;;4.10;57.30;;;;;;4982130;28;20446;-58
2024/01/13 02:54:57;;;;;;;32.93;16.80;;;4.10;57.50;;;;;;4987495;28;20453;-58
2024/01/13 02:57:25;;;;;;;32.37;17.23;;;4.10;57.20;;;;;;4984515;28;20212;-58
2024/01/13 02:59:50;;;;;;;31.83;15.67;;;4.20;57.90;;;;;;4984255;28;20210;-56
2024/01/13 03:02:16;;;;;;;36.67;17.63;;;4.30;57.00;;;;;;4989921;28;20449;-57
2024/01/13 03:04:41;;;;;;;33.13;16.70;;;4.40;56.80;;;;;;4987545;28;20237;-55
2024/01/13 03:07:07;;;;;;;33.87;17.33;;;4.40;56.50;;;;;;4991395;28;20270;-58
2024/01/13 03:09:33;;;;;;;25.53;15.40;;;4.40;56.40;;;;;;4989324;28;20213;-58
2024/01/13 03:11:58;;;;;;;35.27;17.83;;;4.40;56.90;;;;;;4991703;28;20186;-57
2024/01/13 03:14:24;;;;;;;38.33;17.60;;;4.30;56.40;;;;;;4991870;28;20259;-56
2024/01/13 03:16:49;;;;;;;37.70;17.70;;;4.20;56.60;;;;;;4985316;28;20209;-57
2024/01/13 03:19:15;;;;;;;36.40;18.20;;;4.20;56.50;;;;;;4993913;28;20194;-56
2024/01/13 03:21:41;;;;;;;32.80;17.30;;;4.30;56.50;;;;;;4992780;28;20581;-55
2024/01/13 03:24:06;;;;;;;30.47;18.13;;;4.30;56.40;;;;;;4974141;28;20478;-57
2024/01/13 03:26:32;;;;;;;32.03;17.53;;;4.30;56.50;;;;;;4992571;28;20216;-56
2024/01/13 03:28:58;;;;;;;31.23;16.80;;;4.40;56.40;;;;;;4989295;28;20194;-57
2024/01/13 03:31:23;;;;;;;33.20;17.73;;;4.40;56.40;;;;;;4982885;28;20219;-54
2024/01/13 03:33:49;;;;;;;38.90;18.40;;;4.40;56.30;;;;;;4989426;28;20185;-54
2024/01/13 03:36:14;;;;;;;36.37;18.60;;;4.50;56.90;;;;;;4987011;28;20713;-56
2024/01/13 03:38:40;;;;;;;31.03;17.20;;;4.50;56.20;;;;;;4984359;28;20562;-58
2024/01/13 03:41:05;;;;;;;35.90;19.20;;;4.50;55.90;;;;;;4983933;28;20222;-57
2024/01/13 03:43:31;;;;;;;37.67;18.57;;;4.50;56.00;;;;;;4987793;28;20182;-57
2024/01/13 03:45:57;;;;;;;36.53;18.80;;;4.50;55.90;;;;;;4986488;28;20207;-56
2024/01/13 03:48:22;;;;;;;32.87;17.80;;;4.40;55.70;;;;;;4982245;28;20180;-56
2024/01/13 03:50:48;;;;;;;32.07;15.80;;;4.40;55.80;;;;;;4986902;28;20232;-54
2024/01/13 03:53:13;;;;;;;33.20;18.73;;;4.40;55.80;;;;;;4985264;28;20291;-58
2024/01/13 03:55:39;;;;;;;38.17;18.47;;;4.40;55.90;;;;;;4975251;28;20226;-57
2024/01/13 03:58:04;;;;;;;33.37;16.93;;;4.40;55.90;;;;;;4992700;28;20202;-56
2024/01/13 04:00:30;;;;;;;38.47;19.77;;;4.40;55.90;;;;;;4993194;28;20234;-59
2024/01/13 04:02:56;;;;;;;35.07;17.87;;;4.40;55.90;;;;;;4991616;28;20266;-57
2024/01/13 04:05:22;;;;;;;36.50;18.37;;;4.30;55.90;;;;;;4996246;28;20186;-55
2024/01/13 04:07:47;;;;;;;42.00;18.33;;;4.30;56.10;;;;;;4989291;28;21063;-59
2024/01/13 04:10:13;;;;;;;39.60;18.57;;;4.40;56.10;;;;;;4996595;28;20217;-56
2024/01/13 04:12:40;;;;;;;35.43;18.73;;;4.30;56.00;;;;;;4989182;28;20284;-54
2024/01/13 04:15:06;;;;;;;36.30;17.23;;;4.40;56.10;;;;;;4983791;28;20187;-58
2024/01/13 04:17:31;;;;;;;32.93;17.77;;;4.40;56.00;;;;;;4990412;28;20440;-58
2024/01/13 04:19:57;;;;;;;37.10;17.30;;;4.40;55.80;;;;;;4992665;28;20211;-58
2024/01/13 04:22:22;;;;;;;33.67;19.50;;;4.40;55.80;;;;;;4996167;28;20272;-58
2024/01/13 04:24:48;;;;;;;35.10;15.80;;;4.40;55.60;;;;;;4991120;28;20182;-59
2024/01/13 04:27:13;;;;;;;33.13;18.23;;;4.50;55.70;;;;;;4992374;28;20213;-58
2024/01/13 04:29:39;;;;;;;33.20;17.20;;;4.40;55.70;;;;;;4986945;28;20194;-58
2024/01/13 04:32:05;;;;;;;37.57;19.00;;;4.50;55.90;;;;;;4988989;28;20197;-59
2024/01/13 04:34:30;;;;;;;34.50;18.70;;;4.50;55.80;;;;;;4987663;28;20579;-56
2024/01/13 04:36:56;;;;;;;38.57;18.20;;;4.30;55.70;;;;;;4992457;28;20473;-58
2024/01/13 04:39:22;;;;;;;38.40;19.20;;;4.30;56.00;;;;;;4990988;28;20192;-59
2024/01/13 04:41:48;;;;;;;36.10;16.87;;;4.40;55.90;;;;;;4989991;28;20211;-59
2024/01/13 04:44:13;;;;;;;33.77;18.27;;;4.40;55.80;;;;;;4985851;28;20285;-56
2024/01/13 04:46:39;;;;;;;34.33;17.73;;;4.40;55.80;;;;;;4982596;28;20273;-60
2024/01/13 04:49:04;;;;;;;31.87;18.93;;;4.30;56.00;;;;;;4996167;28;20202;-59
2024/01/13 04:51:30;;;;;;;36.10;18.03;;;4.20;56.00;;;;;;4994009;28;20230;-60
2024/01/13 04:53:56;;;;;;;39.10;20.03;;;4.20;56.10;;;;;;4995386;28;20558;-59
2024/01/13 04:56:22;;;;;;;31.57;17.40;;;4.30;56.10;;;;;;4986485;28;20203;-58
2024/01/13 04:58:49;;;;;;;37.00;19.10;;;4.40;56.00;;;;;;4991112;28;20500;-59
2024/01/13 05:01:15;;;;;;;41.27;18.53;;;4.40;55.60;;;;;;4984674;28;20476;-59
2024/01/13 05:03:41;;;;;;;37.07;19.63;;;4.40;55.50;;;;;;4990778;28;20445;-56
2024/01/13 05:06:08;;;;;;;38.10;20.20;;;4.30;55.40;;;;;;4994480;28;20705;-57
2024/01/13 05:08:33;;;;;;;43.23;20.70;;;4.30;55.70;;;;;;4992150;28;20910;-58
2024/01/13 05:10:59;;;;;;;40.40;20.93;;;4.30;55.90;;;;;;4994476;28;20520;-58
2024/01/13 05:13:24;;;;;;;42.00;19.70;;;4.20;55.80;;;;;;4998964;28;20220;-55
2024/01/13 05:15:50;;;;;;;38.93;18.43;;;4.10;56.00;;;;;;4993388;28;20217;-58
2024/01/13 05:18:16;;;;;;;35.97;18.00;;;4.10;55.90;;;;;;4995401;28;20186;-56
2024/01/13 05:20:41;;;;;;;41.23;18.87;;;3.90;56.10;;;;;;4992253;28;20700;-57
2024/01/13 05:23:07;;;;;;;46.90;18.93;;;4.00;56.40;;;;;;5001835;28;20198;-57
2024/01/13 05:25:33;;;;;;;39.10;18.83;;;4.10;56.30;;;;;;4999396;28;20202;-58
2024/01/13 05:27:58;;;;;;;39.70;19.90;;;4.20;56.10;;;;;;4999797;28;20414;-58
2024/01/13 05:30:26;;;;;;;42.37;20.57;;;4.20;55.90;;;;;;4991354;28;20817;-58
2024/01/13 05:32:52;;;;;;;40.23;20.17;;;4.20;55.80;;;;;;4987633;28;20662;-54
2024/01/13 05:35:17;;;;;;;39.73;19.97;;;4.20;55.80;;;;;;4981768;28;20438;-57
2024/01/13 05:37:43;;;;;;;33.43;16.80;;;4.30;55.70;;;;;;4987093;28;21031;-57
2024/01/13 05:40:08;;;;;;;44.33;19.33;;;4.30;55.80;;;;;;4997639;28;20226;-55
2024/01/13 05:42:34;;;;;;;32.13;17.00;;;4.30;55.80;;;;;;4990036;28;20245;-58
2024/01/13 05:45:00;;;;;;;30.43;16.90;;;4.40;55.80;;;;;;4988727;28;20348;-57
2024/01/13 05:47:25;;;;;;;41.70;19.27;;;4.40;55.60;;;;;;4987727;28;20220;-55
2024/01/13 05:49:52;;;;;;;37.57;17.57;;;4.40;55.50;;;;;;4994768;28;20179;-57
2024/01/13 05:52:17;;;;;;;37.37;17.30;;;4.40;55.30;;;;;;4983950;28;20317;-56
2024/01/13 05:54:43;;;;;;;37.37;19.73;;;4.40;55.20;;;;;;4989093;28;20484;-59
2024/01/13 05:57:08;;;;;;;34.00;17.73;;;4.40;55.20;;;;;;4990862;28;20191;-59
2024/01/13 05:59:34;;;;;;;31.83;15.97;;;4.40;55.20;;;;;;4993680;28;20186;-58
2024/01/13 06:01:59;;;;;;;35.10;16.70;;;4.40;55.30;;;;;;4992328;28;20209;-55
2024/01/13 06:04:25;;;;;;;36.50;18.30;;;4.40;55.30;;;;;;4991691;28;20185;-57
2024/01/13 06:06:50;;;;;;;27.60;15.57;;;4.40;55.20;;;;;;4986348;28;20725;-58
2024/01/13 06:09:16;;;;;;;39.33;18.10;;;4.40;55.30;;;;;;4994154;28;20661;-57
2024/01/13 06:11:42;;;;;;;34.83;18.43;;;4.30;55.70;;;;;;4990738;28;20183;-58
2024/01/13 06:14:08;;;;;;;38.67;19.00;;;4.30;56.00;;;;;;4990367;28;20236;-57
2024/01/13 06:16:33;;;;;;;35.00;17.37;;;4.30;55.90;;;;;;4985857;28;20552;-54
2024/01/13 06:18:59;;;;;;;41.20;19.53;;;4.30;55.80;;;;;;4990911;28;20206;-58
2024/01/13 06:21:24;;;;;;;33.60;17.10;;;4.40;55.70;;;;;;4990525;28;20256;-57
2024/01/13 06:23:50;;;;;;;32.43;16.80;;;4.40;55.70;;;;;;4994354;28;20198;-58
2024/01/13 06:26:16;;;;;;;38.70;19.47;;;4.40;55.60;;;;;;4987733;28;20206;-57
2024/01/13 06:28:41;;;;;;;41.33;19.37;;;4.50;55.60;;;;;;4982454;28;20269;-56
2024/01/13 06:31:07;;;;;;;37.77;18.13;;;4.50;55.40;;;;;;4985124;28;20714;-58
2024/01/13 06:33:32;;;;;;;35.50;18.20;;;4.40;55.50;;;;;;4982448;28;20187;-54
2024/01/13 06:35:58;;;;;;;38.97;19.40;;;4.40;55.60;;;;;;4990778;28;20389;-57
2024/01/13 06:38:23;;;;;;;46.33;21.27;;;4.40;55.40;;;;;;4988898;28;20218;-57
2024/01/13 06:40:49;;;;;;;39.20;19.37;;;4.50;55.70;;;;;;4989526;28;20261;-57
2024/01/13 06:43:15;;;;;;;40.13;20.00;;;4.70;57.10;;;;;;4992000;28;20298;-55
2024/01/13 06:45:40;;;;;;;40.87;17.90;;;5.20;57.10;;;;;;4982824;28;20217;-57
2024/01/13 06:48:06;;;;;;;37.50;19.70;;;5.60;56.00;;;;;;4985959;28;20285;-55
2024/01/13 06:50:32;;;;;;;34.93;18.03;;;5.90;55.10;;;;;;4990001;28;20194;-59
2024/01/13 06:52:57;;;;;;;39.93;18.60;;;6.10;54.30;;;;;;4981579;28;20191;-55
2024/01/13 06:55:24;;;;;;;37.60;19.70;;;6.20;53.30;;;;;;4983776;28;20199;-56
2024/01/13 06:57:50;;;;;;;35.23;18.57;;;6.10;52.20;;;;;;4992099;28;20247;-57
2024/01/13 07:00:17;;;;;;;38.93;19.80;;;5.90;52.10;;;;;;4984547;28;20475;-58
2024/01/13 07:02:44;;;;;;;42.70;20.00;;;5.80;52.30;;;;;;4983400;28;20988;-58
2024/01/13 07:05:10;;;;;;;38.20;19.10;;;5.60;53.10;;;;;;4984055;28;20444;-57
2024/01/13 07:07:36;;;;;;;45.80;20.60;;;5.50;52.80;;;;;;4987241;28;20441;-59
2024/01/13 07:10:04;;;;;;;44.00;21.23;;;5.30;53.10;;;;;;4987161;28;20460;-57
2024/01/13 07:12:30;;;;;;;39.50;19.67;;;5.20;53.50;;;;;;4983223;28;20447;-56
2024/01/13 07:14:56;;;;;;;46.20;22.23;;;5.10;53.50;;;;;;4989321;28;20460;-58
2024/01/13 07:17:21;;;;;;;42.80;22.10;;;5.00;53.70;;;;;;4989130;28;20205;-58
2024/01/13 07:19:47;;;;;;;45.67;21.33;;;5.00;53.90;;;;;;4992067;28;20674;-57
2024/01/13 07:22:12;;;;;;;44.73;21.50;;;5.00;54.00;;;;;;4986819;28;20186;-55
2024/01/13 07:24:38;;;;;;;43.37;20.83;;;5.00;53.90;;;;;;4995684;28;20194;-57
2024/01/13 07:27:04;;;;;;;48.17;23.00;;;4.90;54.00;;;;;;4997337;28;20222;-58
2024/01/13 07:29:30;;;;;;;41.10;21.87;;;4.90;54.10;;;;;;4988968;28;20179;-56
2024/01/13 07:31:55;;;;;;;40.27;18.60;;;4.80;54.60;;;;;;4990644;28;20195;-55
2024/01/13 07:34:21;;;;;;;38.70;20.97;;;4.70;54.70;;;;;;4987315;28;20214;-56
2024/01/13 07:36:47;;;;;;;33.77;17.73;;;4.70;54.80;;;;;;4981556;28;20268;-59
2024/01/13 07:39:12;;;;;;;32.83;16.30;;;4.70;54.90;;;;;;4998201;28;20265;-59
2024/01/13 07:41:38;;;;;;;35.70;18.57;;;4.40;54.60;;;;;;4993452;28;20482;-57
2024/01/13 07:44:05;;;;;;;36.87;17.30;;;4.50;55.00;;;;;;4991845;28;20233;-55
2024/01/13 07:46:31;;;;;;;32.83;16.13;;;4.50;55.00;;;;;;5000524;28;20445;-57
2024/01/13 07:48:56;;;;;;;36.90;18.67;;;4.60;55.00;;;;;;5001877;28;21028;-57
2024/01/13 07:51:22;;;;;;;36.07;18.50;;;4.50;54.90;;;;;;5001520;28;20190;-56
2024/01/13 07:53:47;;;;;;;38.40;17.50;;;4.30;55.50;;;;;;5000895;28;20187;-56
2024/01/13 07:56:13;;;;;;;38.13;17.33;;;4.20;55.70;;;;;;4998812;28;20300;-58
2024/01/13 07:58:39;;;;;;;30.47;15.00;;;4.10;55.70;;;;;;5001230;28;20190;-56
2024/01/13 08:01:04;;;;;;;32.03;17.83;;;4.20;55.80;;;;;;5002626;28;20213;-57
2024/01/13 08:03:30;;;;;;;39.90;19.17;;;4.20;55.70;;;;;;5000502;28;20641;-57
2024/01/13 08:05:55;;;;;;;33.27;18.20;;;4.30;55.70;;;;;;5000719;28;20227;-56
2024/01/13 08:08:21;;;;;;;38.90;19.53;;;4.40;55.40;;;;;;4998021;28;20270;-55
2024/01/13 08:10:46;;;;;;;39.23;18.37;;;4.40;55.20;;;;;;4996243;28;20578;-57
2024/01/13 08:13:14;;;;;;;42.77;20.70;;;4.50;55.30;;;;;;4998370;28;20530;-59
2024/01/13 08:15:39;;;;;;;47.77;21.60;;;4.40;55.20;;;;;;4992038;28;20206;-57
2024/01/13 08:18:05;;;;;;;46.27;20.67;;;4.40;55.40;;;;;;4996476;28;20634;-59
2024/01/13 08:20:31;;;;;;;38.03;20.23;;;4.40;55.50;;;;;;4999800;28;20217;-56
2024/01/13 08:22:57;;;;;;;39.70;20.23;;;4.40;55.60;;;;;;4997782;28;20198;-56
2024/01/13 08:25:22;;;;;;;40.87;19.57;;;4.40;55.60;;;;;;4999093;28;20186;-56
2024/01/13 08:27:49;;;;;;;42.37;19.10;;;4.50;55.50;;;;;;4999215;28;20184;-57
2024/01/13 08:30:14;;;;;;;42.93;19.23;;;4.40;55.40;;;;;;4999201;28;20193;-57
2024/01/13 08:32:40;;;;;;;42.07;19.50;;;4.40;55.60;;;;;;4998355;28;20445;-53
2024/01/13 08:35:07;;;;;;;32.60;17.47;;;4.50;55.50;;;;;;4994228;28;20231;-55
2024/01/13 08:37:32;;;;;;;37.67;19.37;;;4.50;55.20;;;;;;4993510;28;20195;-58
2024/01/13 08:39:58;;;;;;;47.30;20.80;;;4.30;55.10;;;;;;5000563;28;20477;-56
2024/01/13 08:42:24;;;;;;;42.30;22.10;;;4.20;55.70;;;;;;4989705;28;20202;-57
2024/01/13 08:44:49;;;;;;;49.13;20.10;;;4.10;55.60;;;;;;4999243;28;20187;-55
2024/01/13 08:47:15;;;;;;;44.57;21.20;;;4.10;55.60;;;;;;4997830;28;20360;-56
2024/01/13 08:49:40;;;;;;;45.70;22.17;;;4.30;55.40;;;;;;4994524;28;20195;-56
2024/01/13 08:52:09;;;;;;;47.40;22.13;;;4.30;55.20;;;;;;4991605;28;20257;-55
2024/01/13 08:54:35;;;;;;;43.80;18.27;;;4.10;55.20;;;;;;4989434;28;20190;-55
2024/01/13 08:57:01;;;;;;;42.00;18.30;;;4.10;55.40;;;;;;4981585;28;20472;-58
2024/01/13 08:59:26;;;;;;;34.73;17.43;;;4.10;55.30;;;;;;4993117;28;20824;-52
2024/01/13 09:01:52;;;;;;;34.07;17.80;;;4.00;55.10;;;;;;4987626;28;20262;-58
2024/01/13 09:04:18;;;;;;;37.13;18.80;;;4.10;55.20;;;;;;4983440;28;20194;-57
2024/01/13 09:06:44;;;;;;;30.17;16.43;;;4.20;55.00;;;;;;4992196;28;20788;-58
2024/01/13 09:09:10;;;;;;;35.93;16.70;;;4.30;54.80;;;;;;4998797;28;20417;-59
2024/01/13 09:11:36;;;;;;;34.83;17.07;;;4.30;54.60;;;;;;4996715;28;20292;-57
2024/01/13 09:14:02;;;;;;;40.83;18.07;;;4.30;54.10;;;;;;4992045;28;20453;-56
2024/01/13 09:16:28;;;;;;;34.77;17.40;;;4.30;54.30;;;;;;4991722;28;20472;-56
2024/01/13 09:18:54;;;;;;;32.80;14.83;;;4.40;54.30;;;;;;4991990;28;21833;-58
2024/01/13 09:21:19;;;;;;;33.13;17.90;;;4.40;54.10;;;;;;4997879;28;20215;-56
2024/01/13 09:23:45;;;;;;;34.83;16.70;;;4.50;54.60;;;;;;4987393;28;20429;-57
2024/01/13 09:26:10;;;;;;;26.43;12.87;;;4.50;54.50;;;;;;4985351;28;20222;-55
2024/01/13 09:28:36;;;;;;;25.37;13.40;;;4.60;54.10;;;;;;4996875;28;20227;-59
2024/01/13 09:31:02;;;;;;;24.33;10.87;;;4.60;53.70;;;;;;4988833;28;20191;-58
2024/01/13 09:33:28;;;;;;;12.93;7.17;;;4.50;53.60;;;;;;4995885;28;20201;-58
2024/01/13 09:35:53;;;;;;;10.83;6.27;;;4.40;53.60;;;;;;4991395;28;20453;-59
2024/01/13 09:38:19;;;;;;;17.80;9.63;;;4.40;53.50;;;;;;4991149;28;20217;-54
2024/01/13 09:40:46;;;;;;;15.90;8.67;;;4.50;53.40;;;;;;5000396;28;20709;-55
2024/01/13 09:43:25;;;;;;;12.43;7.23;;;4.60;53.30;;;;;;4987303;28;20451;-55
2024/01/13 09:45:52;;;;;;;10.13;6.27;;;4.50;53.30;;;;;;4993844;28;20456;-57
2024/01/13 09:48:20;;;;;;;10.57;5.57;;;4.40;52.90;;;;;;4999052;28;20936;-58
2024/01/13 09:50:49;;;;;;;12.30;6.10;;;4.40;53.40;;;;;;4994321;28;20444;-56
2024/01/13 09:53:27;;;;;;;10.23;5.73;;;4.40;53.50;;;;;;4990417;28;20846;-55
2024/01/13 09:56:05;;;;;;;11.07;7.10;;;4.50;53.20;;;;;;4993512;28;20449;-56
2024/01/13 09:58:31;;;;;;;9.80;5.93;;;4.60;52.90;;;;;;4995659;28;20421;-57
2024/01/13 10:00:59;;;;;;;12.80;6.67;;;4.70;52.60;;;;;;4989592;28;20477;-58
2024/01/13 10:03:25;;;;;;;8.80;5.20;;;4.70;52.60;;;;;;5001696;28;20496;-56
2024/01/13 10:05:52;;;;;;;9.53;5.73;;;4.60;52.70;;;;;;4989645;28;20529;-55
2024/01/13 10:08:31;;;;;;;11.10;5.80;;;4.50;53.10;;;;;;4995704;28;20185;-58
2024/01/13 10:10:58;;;;;;;8.60;5.27;;;4.30;53.30;;;;;;4988626;28;20448;-59
2024/01/13 10:13:25;;;;;;;10.73;5.97;;;4.30;53.70;;;;;;4984352;28;20449;-55
2024/01/13 10:15:51;;;;;;;9.13;5.27;;;4.50;53.60;;;;;;4986875;28;20452;-60
2024/01/13 10:18:18;;;;;;;8.37;5.57;;;4.50;53.40;;;;;;4984810;28;20438;-57
2024/01/13 10:20:44;;;;;;;7.83;5.00;;;4.40;53.40;;;;;;4973683;28;20519;-57
2024/01/13 10:23:11;;;;;;;10.93;5.57;;;4.40;53.50;;;;;;4980554;28;20473;-58
2024/01/13 10:25:36;;;;;;;9.13;6.40;;;4.50;53.50;;;;;;4985836;28;20236;-60
2024/01/13 10:28:03;;;;;;;11.77;6.17;;;4.30;53.70;;;;;;4994418;28;20967;-58
2024/01/13 10:30:29;;;;;;;10.57;6.23;;;4.30;54.10;;;;;;4981071;28;20214;-59
2024/01/13 10:32:54;;;;;;;9.50;5.37;;;4.30;54.00;;;;;;4980459;28;20466;-57
2024/01/13 10:35:21;;;;;;;9.50;6.00;;;4.40;53.90;;;;;;4976084;28;20246;-57
2024/01/13 10:37:46;;;;;;;12.07;7.20;;;4.50;53.90;;;;;;4985344;28;20477;-59
2024/01/13 10:40:12;;;;;;;11.40;6.40;;;4.60;53.70;;;;;;4991615;28;20499;-59
2024/01/13 10:42:38;;;;;;;8.90;5.83;;;4.70;53.40;;;;;;4986680;28;20299;-59
2024/01/13 10:45:09;;;;;;;8.60;5.50;;;4.70;53.40;;;;;;4997645;28;20698;-59
2024/01/13 10:47:41;;;;;;;9.33;5.80;;;4.80;53.30;;;;;;4988993;28;20484;-58
2024/01/13 10:50:10;;;;;;;10.33;6.40;;;4.90;53.30;;;;;;4985032;28;20999;-59
2024/01/13 10:52:44;;;;;;;10.20;6.07;;;4.60;53.30;;;;;;4986343;28;20453;-58
2024/01/13 10:55:10;;;;;;;7.40;5.67;;;4.60;54.00;;;;;;4985426;28;20456;-59
2024/01/13 10:57:37;;;;;;;9.13;6.20;;;4.60;53.90;;;;;;4988798;28;20442;-57
2024/01/13 11:00:06;;;;;;;10.93;6.60;;;4.70;53.90;;;;;;4989305;28;20222;-59
2024/01/13 11:02:33;;;;;;;10.53;6.07;;;4.60;53.60;;;;;;4980647;28;20500;-59
2024/01/13 11:05:01;;;;;;;10.73;5.80;;;4.60;53.80;;;;;;4983475;28;20445;-60
2024/01/13 11:07:26;;;;;;;8.70;5.60;;;4.80;53.60;;;;;;4993057;28;20734;-59
2024/01/13 11:09:56;;;;;;;10.47;6.10;;;4.80;53.30;;;;;;4992542;28;20430;-55
2024/01/13 11:12:33;;;;;;;7.90;5.37;;;4.80;53.30;;;;;;4996066;28;20178;-56
2024/01/13 11:15:05;;;;;;;9.17;5.37;;;4.80;53.30;;;;;;4994724;28;20873;-57
2024/01/13 11:17:32;;;;;;;10.90;7.17;;;4.80;53.20;;;;;;4992585;28;20832;-58
2024/01/13 11:19:59;;;;;;;9.80;5.90;;;4.70;53.40;;;;;;4982761;28;20504;-58
2024/01/13 11:22:38;;;;;;;10.40;5.70;;;4.50;53.60;;;;;;4997232;28;20524;-59
2024/01/13 11:25:25;;;;;;;12.67;6.20;;;4.60;54.00;;;;;;5000397;28;20438;-60
2024/01/13 11:28:02;;;;;;;9.63;6.73;;;4.70;53.80;;;;;;4998049;28;20441;-59
2024/01/13 11:30:39;;;;;;;11.40;6.70;;;4.80;53.60;;;;;;4982063;28;21457;-59
2024/01/13 11:33:17;;;;;;;10.47;6.97;;;4.90;53.80;;;;;;4994998;28;20792;-62
2024/01/13 11:35:50;;;;;;;9.73;6.77;;;4.90;53.90;;;;;;4982713;28;20484;-61
2024/01/13 11:38:16;;;;;;;8.90;6.40;;;4.90;53.60;;;;;;4999177;28;20455;-61
2024/01/13 11:40:50;;;;;;;10.20;6.07;;;4.90;53.60;;;;;;4986030;28;20528;-60
2024/01/13 11:43:23;;;;;;;11.30;7.17;;;4.70;53.10;;;;;;4991084;28;20788;-60
2024/01/13 11:45:50;;;;;;;13.03;9.77;;;4.70;53.50;;;;;;4984195;28;20485;-60
2024/01/13 11:48:36;;;;;;;8.57;6.60;;;4.80;53.50;;;;;;4994918;28;20768;-59
2024/01/13 11:51:08;;;;;;;11.97;6.80;;;4.60;53.40;;;;;;5000437;28;20991;-59
2024/01/13 11:53:42;;;;;;;10.13;7.30;;;4.40;53.60;;;;;;4992483;28;20826;-61
2024/01/13 11:56:09;;;;;;;12.70;8.00;;;4.50;54.10;;;;;;4993952;28;20493;-60
2024/01/13 11:58:36;;;;;;;11.20;7.50;;;4.20;54.40;;;;;;4994329;28;20466;-60
2024/01/13 12:01:09;;;;;;;11.77;6.90;;;4.20;54.80;;;;;;4983936;28;20505;-58
2024/01/13 12:03:35;;;;;;;14.73;7.67;;;4.30;54.90;;;;;;4991915;28;20445;-59
2024/01/13 12:06:01;;;;;;;13.90;7.73;;;4.50;54.40;;;;;;5001433;28;20479;-60
2024/01/13 12:08:27;;;;;;;14.20;8.00;;;4.40;54.10;;;;;;4993591;28;20544;-60
2024/01/13 12:10:54;;;;;;;13.90;8.70;;;4.50;54.30;;;;;;4991852;28;20453;-59
2024/01/13 12:13:23;;;;;;;15.53;9.27;;;4.40;54.50;;;;;;4988991;28;20286;-59
2024/01/13 12:15:49;;;;;;;30.77;17.40;;;4.40;54.70;;;;;;4982696;28;20548;-60
2024/01/13 12:18:22;;;;;;;45.67;23.27;;;4.20;54.90;;;;;;4986652;28;20449;-61
2024/01/13 12:20:57;;;;;;;41.63;22.80;;;4.40;55.00;;;;;;4992372;28;20501;-59
2024/01/13 12:23:23;;;;;;;50.97;22.97;;;4.50;55.00;;;;;;4987003;28;20446;-60
2024/01/13 12:25:51;;;;;;;45.50;23.87;;;4.50;54.20;;;;;;4984556;28;20454;-59
2024/01/13 12:28:16;;;;;;;45.37;23.97;;;4.50;54.00;;;;;;4993374;28;20971;-58
2024/01/13 12:30:44;;;;;;;54.17;25.93;;;4.50;54.10;;;;;;4986890;28;20446;-61
2024/01/13 12:33:11;;;;;;;52.80;24.37;;;4.60;54.30;;;;;;4996355;28;20198;-61
2024/01/13 12:35:37;;;;;;;49.10;23.10;;;4.60;54.20;;;;;;4989965;28;20869;-60
2024/01/13 12:38:06;;;;;;;56.40;26.37;;;4.60;54.20;;;;;;4995763;28;20449;-59